Host, Pennsylvania
Current Conditions -  °F | °C
As of 3:54 AM on Monday 24 Nov 2014 (Local Time) from KRDG Reporting Station
Light Rain Light Rain  
Wind Chill: 60°   Ceiling: 1300
Heat Index: 60°   Visibility: 5mi
Dew Point: 57°   Wind: 8mph
Humidity: 90%   Direction: 200°SSW
Pressure: 29.65"   Gusts: NA
Location:  40.3905°N, 76.2083°W
Report Text: KRDG 240854Z AUTO 20007KT 5SM -RA BR BKN013 OVC018 16/14 A2965 RMK AO2 SLP042 P0004 60023 T01560139 56054
Loading
Personal Weather Stations






























Interactive Weather Map New forecast layout! Learn more

10-Day Weather Forecast

Advertisements
Track Severe Weather on mobile